PWSweather.com
Personal Weather Stations
Station Observations
WAIROAHB
Wairoa, Northern Hawkes Bay -NZ 4108

WairoaNorthern Hawkes Bay -NZ 4108

Lat: -39.04516934, Lon: 177.4263989

Elevation: 156

Station Type: WS3083

http://wairoa.net/weather/index.htm

High Low Average
Temperature 90.0°F32.2°C 63.0°F17.2°C 77.1°F25.1°C
Dew Point 68.6°F20.3°C 61.5°F16.4°C 64.5°F18.1°C
Winds 15.9 mph 25.6 kmh Calm Calm 4.0 mph SW6.4 kmh SW
Wind Gusts 18.3 mph29.5 kmh -- 9.0 mph14.5 kmh
Humidity 99% 40% 68%
Pressure 29.92 in1013.2 mb 29.70 in1005.8 mb -
Precipitation 0.00 in0.0 mm - -
Hour Temp Dew Point Humidity Winds Wind Gusts Pressure Precip Precip Rate Daily Precip Total
12:00 AM 66.9°F19.4°C 66.1°F18.9°C 97% Calm Calm 3.1 mph5.0 kmh 29.92 in1013.2 mb 0.00 in0.0 mm 0.00 in0.0 mm 0.00 in0.0 mm
12:10 AM 66.9°F19.4°C 66.1°F18.9°C 97% Calm Calm -- 29.92 in1013.2 mb 0.00 in0.0 mm 0.00 in0.0 mm 0.00 in0.0 mm
12:20 AM 66.7°F19.3°C 65.9°F18.8°C 97% 1.6 mph N2.6 kmh N 2.2 mph3.5 kmh 29.91 in1012.9 mb 0.00 in0.0 mm 0.00 in0.0 mm 0.00 in0.0 mm
12:30 AM 66.7°F19.3°C 65.9°F18.8°C 97% Calm Calm 2.2 mph3.5 kmh 29.91 in1012.9 mb 0.00 in0.0 mm 0.00 in0.0 mm 0.00 in0.0 mm
12:40 AM 66.7°F19.3°C 65.9°F18.8°C 97% Calm Calm -- 29.91 in1012.9 mb 0.00 in0.0 mm 0.00 in0.0 mm 0.00 in0.0 mm
12:50 AM 66.6°F19.2°C 65.7°F18.7°C 97% Calm Calm 0.7 mph1.1 kmh 29.91 in1012.9 mb 0.00 in0.0 mm 0.00 in0.0 mm 0.00 in0.0 mm
01:00 AM 66.2°F19.0°C 65.6°F18.7°C 98% 0.7 mph N1.1 kmh N 2.2 mph3.5 kmh 29.91 in1012.9 mb 0.00 in0.0 mm 0.00 in0.0 mm 0.00 in0.0 mm
01:10 AM 66.0°F18.9°C 65.8°F18.8°C 99% Calm Calm 3.1 mph5.0 kmh 29.91 in1012.9 mb 0.00 in0.0 mm 0.00 in0.0 mm 0.00 in0.0 mm
01:20 AM 65.8°F18.8°C 65.6°F18.7°C 99% Calm Calm -- 29.91 in1012.9 mb 0.00 in0.0 mm 0.00 in0.0 mm 0.00 in0.0 mm
01:30 AM 65.7°F18.7°C 65.4°F18.6°C 99% 1.6 mph N2.6 kmh N 3.1 mph5.0 kmh 29.92 in1013.2 mb 0.00 in0.0 mm 0.00 in0.0 mm 0.00 in0.0 mm
01:40 AM 65.5°F18.6°C 65.2°F18.4°C 99% 2.2 mph N3.5 kmh N 3.8 mph6.1 kmh 29.92 in1013.2 mb 0.00 in0.0 mm 0.00 in0.0 mm 0.00 in0.0 mm
01:50 AM 65.5°F18.6°C 65.2°F18.4°C 99% 3.1 mph N5.0 kmh N 4.5 mph7.2 kmh 29.91 in1012.9 mb 0.00 in0.0 mm 0.00 in0.0 mm 0.00 in0.0 mm
02:00 AM 65.5°F18.6°C 65.2°F18.4°C 99% 0.7 mph N1.1 kmh N 4.5 mph7.2 kmh 29.91 in1012.9 mb 0.00 in0.0 mm 0.00 in0.0 mm 0.00 in0.0 mm
02:10 AM 65.3°F18.5°C 65.0°F18.3°C 99% 3.8 mph N6.1 kmh N 6.0 mph9.7 kmh 29.91 in1012.9 mb 0.00 in0.0 mm 0.00 in0.0 mm 0.00 in0.0 mm
02:20 AM 64.9°F18.3°C 64.7°F18.2°C 99% 3.1 mph NNW5.0 kmh NNW 5.4 mph8.7 kmh 29.90 in1012.5 mb 0.00 in0.0 mm 0.00 in0.0 mm 0.00 in0.0 mm
02:30 AM 64.6°F18.1°C 64.3°F17.9°C 99% 3.1 mph NW5.0 kmh NW 5.4 mph8.7 kmh 29.89 in1012.2 mb 0.00 in0.0 mm 0.00 in0.0 mm 0.00 in0.0 mm
02:40 AM 64.2°F17.9°C 63.4°F17.4°C 97% 1.6 mph N2.6 kmh N 4.5 mph7.2 kmh 29.89 in1012.2 mb 0.00 in0.0 mm 0.00 in0.0 mm 0.00 in0.0 mm
02:50 AM 64.4°F18.0°C 64.1°F17.8°C 99% 2.2 mph N3.5 kmh N 5.4 mph8.7 kmh 29.89 in1012.2 mb 0.00 in0.0 mm 0.00 in0.0 mm 0.00 in0.0 mm
03:00 AM 64.0°F17.8°C 63.2°F17.3°C 97% 1.6 mph NNW2.6 kmh NNW 6.0 mph9.7 kmh 29.88 in1011.9 mb 0.00 in0.0 mm 0.00 in0.0 mm 0.00 in0.0 mm
03:10 AM 63.7°F17.6°C 62.8°F17.1°C 97% Calm Calm 5.4 mph8.7 kmh 29.88 in1011.9 mb 0.00 in0.0 mm 0.00 in0.0 mm 0.00 in0.0 mm
03:20 AM 63.5°F17.5°C 62.7°F17.1°C 97% Calm Calm -- 29.87 in1011.5 mb 0.00 in0.0 mm 0.00 in0.0 mm 0.00 in0.0 mm
03:30 AM 63.3°F17.4°C 62.5°F16.9°C 97% Calm Calm -- 29.88 in1011.9 mb 0.00 in0.0 mm 0.00 in0.0 mm 0.00 in0.0 mm
03:40 AM 63.3°F17.4°C 62.5°F16.9°C 97% Calm Calm -- 29.88 in1011.9 mb 0.00 in0.0 mm 0.00 in0.0 mm 0.00 in0.0 mm
03:50 AM 63.1°F17.3°C 62.3°F16.8°C 97% Calm Calm -- 29.87 in1011.5 mb 0.00 in0.0 mm 0.00 in0.0 mm 0.00 in0.0 mm
04:00 AM 63.0°F17.2°C 62.1°F16.7°C 97% Calm Calm -- 29.89 in1012.2 mb 0.00 in0.0 mm 0.00 in0.0 mm 0.00 in0.0 mm
04:10 AM 63.1°F17.3°C 62.3°F16.8°C 97% Calm Calm -- 29.89 in1012.2 mb 0.00 in0.0 mm 0.00 in0.0 mm 0.00 in0.0 mm
04:20 AM 63.1°F17.3°C 62.3°F16.8°C 97% Calm Calm -- 29.90 in1012.5 mb 0.00 in0.0 mm 0.00 in0.0 mm 0.00 in0.0 mm
04:30 AM 63.1°F17.3°C 62.3°F16.8°C 97% Calm Calm -- 29.90 in1012.5 mb 0.00 in0.0 mm 0.00 in0.0 mm 0.00 in0.0 mm
04:40 AM 63.3°F17.4°C 62.5°F16.9°C 97% Calm Calm -- 29.91 in1012.9 mb 0.00 in0.0 mm 0.00 in0.0 mm 0.00 in0.0 mm
04:50 AM 63.3°F17.4°C 62.5°F16.9°C 97% Calm Calm -- 29.90 in1012.5 mb 0.00 in0.0 mm 0.00 in0.0 mm 0.00 in0.0 mm
05:00 AM 63.5°F17.5°C 62.7°F17.1°C 97% Calm Calm -- 29.91 in1012.9 mb 0.00 in0.0 mm 0.00 in0.0 mm 0.00 in0.0 mm
05:10 AM 63.5°F17.5°C 62.7°F17.1°C 97% Calm Calm -- 29.91 in1012.9 mb 0.00 in0.0 mm 0.00 in0.0 mm 0.00 in0.0 mm
05:20 AM 63.5°F17.5°C 62.7°F17.1°C 97% Calm Calm -- 29.91 in1012.9 mb 0.00 in0.0 mm 0.00 in0.0 mm 0.00 in0.0 mm
05:30 AM 63.7°F17.6°C 62.8°F17.1°C 97% Calm Calm 3.1 mph5.0 kmh 29.90 in1012.5 mb 0.00 in0.0 mm 0.00 in0.0 mm 0.00 in0.0 mm
05:40 AM 64.4°F18.0°C 64.1°F17.8°C 99% Calm Calm 0.7 mph1.1 kmh 29.90 in1012.5 mb 0.00 in0.0 mm 0.00 in0.0 mm 0.00 in0.0 mm
05:50 AM 65.8°F18.8°C 65.6°F18.7°C 99% Calm Calm -- 29.90 in1012.5 mb 0.00 in0.0 mm 0.00 in0.0 mm 0.00 in0.0 mm
06:00 AM 66.2°F19.0°C 65.6°F18.7°C 98% Calm Calm -- 29.90 in1012.5 mb 0.00 in0.0 mm 0.00 in0.0 mm 0.00 in0.0 mm
06:10 AM 66.2°F19.0°C 65.4°F18.6°C 97% 2.2 mph NNW3.5 kmh NNW 3.1 mph5.0 kmh 29.89 in1012.2 mb 0.00 in0.0 mm 0.00 in0.0 mm 0.00 in0.0 mm
06:20 AM 67.5°F19.7°C 66.0°F18.9°C 95% 2.2 mph NW3.5 kmh NW 4.5 mph7.2 kmh 29.89 in1012.2 mb 0.00 in0.0 mm 0.00 in0.0 mm 0.00 in0.0 mm
06:30 AM 68.2°F20.1°C 65.8°F18.8°C 92% 3.1 mph N5.0 kmh N 5.4 mph8.7 kmh 29.89 in1012.2 mb 0.00 in0.0 mm 0.00 in0.0 mm 0.00 in0.0 mm
06:40 AM 68.5°F20.3°C 64.9°F18.3°C 88% 3.1 mph NW5.0 kmh NW 6.0 mph9.7 kmh 29.89 in1012.2 mb 0.00 in0.0 mm 0.00 in0.0 mm 0.00 in0.0 mm
06:50 AM 69.1°F20.6°C 65.1°F18.4°C 87% 4.5 mph NW7.2 kmh NW 6.9 mph11.1 kmh 29.90 in1012.5 mb 0.00 in0.0 mm 0.00 in0.0 mm 0.00 in0.0 mm
07:00 AM 70.0°F21.1°C 65.0°F18.3°C 84% 3.8 mph N6.1 kmh N 6.9 mph11.1 kmh 29.89 in1012.2 mb 0.00 in0.0 mm 0.00 in0.0 mm 0.00 in0.0 mm
07:10 AM 70.3°F21.3°C 65.3°F18.5°C 84% 2.2 mph N3.5 kmh N 6.9 mph11.1 kmh 29.89 in1012.2 mb 0.00 in0.0 mm 0.00 in0.0 mm 0.00 in0.0 mm
07:20 AM 71.1°F21.7°C 65.7°F18.7°C 83% 3.1 mph NNW5.0 kmh NNW 6.0 mph9.7 kmh 29.89 in1012.2 mb 0.00 in0.0 mm 0.00 in0.0 mm 0.00 in0.0 mm
07:30 AM 72.5°F22.5°C 66.7°F19.3°C 82% 3.8 mph N6.1 kmh N 5.4 mph8.7 kmh 29.89 in1012.2 mb 0.00 in0.0 mm 0.00 in0.0 mm 0.00 in0.0 mm
07:40 AM 72.5°F22.5°C 66.4°F19.1°C 81% 4.5 mph NNW7.2 kmh NNW 6.9 mph11.1 kmh 29.89 in1012.2 mb 0.00 in0.0 mm 0.00 in0.0 mm 0.00 in0.0 mm
07:50 AM 74.5°F23.6°C 67.2°F19.6°C 78% 2.2 mph N3.5 kmh N 5.4 mph8.7 kmh 29.89 in1012.2 mb 0.00 in0.0 mm 0.00 in0.0 mm 0.00 in0.0 mm
08:00 AM 75.7°F24.3°C 67.3°F19.6°C 75% 3.1 mph N5.0 kmh N 6.0 mph9.7 kmh 29.89 in1012.2 mb 0.00 in0.0 mm 0.00 in0.0 mm 0.00 in0.0 mm
08:10 AM 76.6°F24.8°C 68.2°F20.1°C 75% 6.0 mph NNW9.7 kmh NNW 7.6 mph12.2 kmh 29.89 in1012.2 mb 0.00 in0.0 mm 0.00 in0.0 mm 0.00 in0.0 mm
08:20 AM 77.9°F25.5°C 68.6°F20.3°C 73% 4.5 mph NNW7.2 kmh NNW 7.6 mph12.2 kmh 29.89 in1012.2 mb 0.00 in0.0 mm 0.00 in0.0 mm 0.00 in0.0 mm
08:30 AM 77.9°F25.5°C 67.0°F19.4°C 69% 3.1 mph NW5.0 kmh NW 7.6 mph12.2 kmh 29.89 in1012.2 mb 0.00 in0.0 mm 0.00 in0.0 mm 0.00 in0.0 mm
08:40 AM 78.1°F25.6°C 66.3°F19.1°C 67% 4.5 mph N7.2 kmh N 10.7 mph17.2 kmh 29.89 in1012.2 mb 0.00 in0.0 mm 0.00 in0.0 mm 0.00 in0.0 mm
08:50 AM 78.1°F25.6°C 66.3°F19.1°C 67% 4.5 mph N7.2 kmh N 9.8 mph15.8 kmh 29.89 in1012.2 mb 0.00 in0.0 mm 0.00 in0.0 mm 0.00 in0.0 mm
09:00 AM 78.3°F25.7°C 66.4°F19.1°C 67% 3.8 mph N6.1 kmh N 10.7 mph17.2 kmh 29.89 in1012.2 mb 0.00 in0.0 mm 0.00 in0.0 mm 0.00 in0.0 mm
09:10 AM 79.2°F26.2°C 67.3°F19.6°C 67% 5.4 mph NNW8.7 kmh NNW 8.3 mph13.4 kmh 29.89 in1012.2 mb 0.00 in0.0 mm 0.00 in0.0 mm 0.00 in0.0 mm
09:20 AM 80.4°F26.9°C 68.1°F20.1°C 66% 4.5 mph N7.2 kmh N 6.9 mph11.1 kmh 29.89 in1012.2 mb 0.00 in0.0 mm 0.00 in0.0 mm 0.00 in0.0 mm
09:30 AM 79.9°F26.6°C 67.6°F19.8°C 66% 4.5 mph NNW7.2 kmh NNW 9.8 mph15.8 kmh 29.90 in1012.5 mb 0.00 in0.0 mm 0.00 in0.0 mm 0.00 in0.0 mm
09:40 AM 80.2°F26.8°C 67.5°F19.7°C 65% 4.5 mph N7.2 kmh N 10.7 mph17.2 kmh 29.89 in1012.2 mb 0.00 in0.0 mm 0.00 in0.0 mm 0.00 in0.0 mm
09:50 AM 81.0°F27.2°C 67.2°F19.6°C 63% 3.1 mph NNW5.0 kmh NNW 8.3 mph13.4 kmh 29.88 in1011.9 mb 0.00 in0.0 mm 0.00 in0.0 mm 0.00 in0.0 mm
10:00 AM 81.7°F27.6°C 67.4°F19.7°C 62% 4.5 mph N7.2 kmh N 9.8 mph15.8 kmh 29.88 in1011.9 mb 0.00 in0.0 mm 0.00 in0.0 mm 0.00 in0.0 mm
10:10 AM 81.7°F27.6°C 67.4°F19.7°C 62% 6.9 mph N11.1 kmh N 12.1 mph19.5 kmh 29.88 in1011.9 mb 0.00 in0.0 mm 0.00 in0.0 mm 0.00 in0.0 mm
10:20 AM 82.9°F28.3°C 67.2°F19.6°C 59% 3.8 mph N6.1 kmh N 9.8 mph15.8 kmh 29.88 in1011.9 mb 0.00 in0.0 mm 0.00 in0.0 mm 0.00 in0.0 mm
10:30 AM 82.6°F28.1°C 66.4°F19.1°C 58% 5.4 mph NW8.7 kmh NW 8.3 mph13.4 kmh 29.88 in1011.9 mb 0.00 in0.0 mm 0.00 in0.0 mm 0.00 in0.0 mm
10:40 AM 82.2°F27.9°C 68.0°F20.0°C 62% 1.6 mph N2.6 kmh N 7.6 mph12.2 kmh 29.87 in1011.5 mb 0.00 in0.0 mm 0.00 in0.0 mm 0.00 in0.0 mm
10:50 AM 83.8°F28.8°C 64.9°F18.3°C 53% 6.9 mph NNW11.1 kmh NNW 10.7 mph17.2 kmh 29.87 in1011.5 mb 0.00 in0.0 mm 0.00 in0.0 mm 0.00 in0.0 mm
11:00 AM 82.8°F28.2°C 66.5°F19.2°C 58% 7.6 mph WNW12.2 kmh WNW 10.7 mph17.2 kmh 29.88 in1011.9 mb 0.00 in0.0 mm 0.00 in0.0 mm 0.00 in0.0 mm
11:10 AM 82.6°F28.1°C 66.4°F19.1°C 58% 6.9 mph NW11.1 kmh NW 10.7 mph17.2 kmh 29.87 in1011.5 mb 0.00 in0.0 mm 0.00 in0.0 mm 0.00 in0.0 mm
11:20 AM 83.8°F28.8°C 66.0°F18.9°C 55% 7.6 mph NW12.2 kmh NW 13.6 mph21.9 kmh 29.87 in1011.5 mb 0.00 in0.0 mm 0.00 in0.0 mm 0.00 in0.0 mm
11:30 AM 83.7°F28.7°C 64.2°F17.9°C 52% 6.0 mph NW9.7 kmh NW 13.0 mph20.9 kmh 29.86 in1011.2 mb 0.00 in0.0 mm 0.00 in0.0 mm 0.00 in0.0 mm
11:40 AM 83.7°F28.7°C 64.2°F17.9°C 52% 6.9 mph NW11.1 kmh NW 13.0 mph20.9 kmh 29.87 in1011.5 mb 0.00 in0.0 mm 0.00 in0.0 mm 0.00 in0.0 mm
11:50 AM 84.4°F29.1°C 63.8°F17.7°C 50% 2.2 mph NW3.5 kmh NW 11.4 mph18.3 kmh 29.86 in1011.2 mb 0.00 in0.0 mm 0.00 in0.0 mm 0.00 in0.0 mm
12:00 PM 84.4°F29.1°C 64.3°F17.9°C 51% 6.9 mph NW11.1 kmh NW 14.5 mph23.3 kmh 29.85 in1010.8 mb 0.00 in0.0 mm 0.00 in0.0 mm 0.00 in0.0 mm
12:10 PM 84.4°F29.1°C 63.2°F17.3°C 49% 6.9 mph NW11.1 kmh NW 14.5 mph23.3 kmh 29.85 in1010.8 mb 0.00 in0.0 mm 0.00 in0.0 mm 0.00 in0.0 mm
12:20 PM 85.5°F29.7°C 63.6°F17.6°C 48% 7.6 mph N12.2 kmh N 13.6 mph21.9 kmh 29.84 in1010.5 mb 0.00 in0.0 mm 0.00 in0.0 mm 0.00 in0.0 mm
12:30 PM 84.9°F29.4°C 63.1°F17.3°C 48% 4.5 mph NNW7.2 kmh NNW 13.0 mph20.9 kmh 29.84 in1010.5 mb 0.00 in0.0 mm 0.00 in0.0 mm 0.00 in0.0 mm
12:40 PM 85.5°F29.7°C 63.6°F17.6°C 48% 9.2 mph NNW14.8 kmh NNW 13.6 mph21.9 kmh 29.84 in1010.5 mb 0.00 in0.0 mm 0.00 in0.0 mm 0.00 in0.0 mm
12:50 PM 85.6°F29.8°C 63.1°F17.3°C 47% 6.0 mph NNW9.7 kmh NNW 15.9 mph25.6 kmh 29.84 in1010.5 mb 0.00 in0.0 mm 0.00 in0.0 mm 0.00 in0.0 mm
01:00 PM 85.8°F29.9°C 63.9°F17.7°C 48% 4.5 mph N7.2 kmh N 15.2 mph24.5 kmh 29.83 in1010.2 mb 0.00 in0.0 mm 0.00 in0.0 mm 0.00 in0.0 mm
01:10 PM 86.9°F30.5°C 63.7°F17.6°C 46% 8.3 mph NNW13.4 kmh NNW 13.6 mph21.9 kmh 29.83 in1010.2 mb 0.00 in0.0 mm 0.00 in0.0 mm 0.00 in0.0 mm
01:20 PM 85.1°F29.5°C 63.3°F17.4°C 48% 4.5 mph N7.2 kmh N 15.9 mph25.6 kmh 29.82 in1009.8 mb 0.00 in0.0 mm 0.00 in0.0 mm 0.00 in0.0 mm
01:30 PM 86.2°F30.1°C 63.6°F17.6°C 47% 3.1 mph N5.0 kmh N 11.4 mph18.3 kmh 29.81 in1009.5 mb 0.00 in0.0 mm 0.00 in0.0 mm 0.00 in0.0 mm
01:40 PM 86.7°F30.4°C 64.1°F17.8°C 47% 4.5 mph NNW7.2 kmh NNW 9.8 mph15.8 kmh 29.81 in1009.5 mb 0.00 in0.0 mm 0.00 in0.0 mm 0.00 in0.0 mm
01:50 PM 87.8°F31.0°C 63.9°F17.7°C 45% 4.5 mph NNW7.2 kmh NNW 10.7 mph17.2 kmh 29.80 in1009.1 mb 0.00 in0.0 mm 0.00 in0.0 mm 0.00 in0.0 mm
02:00 PM 86.9°F30.5°C 63.1°F17.3°C 45% 5.4 mph NW8.7 kmh NW 15.2 mph24.5 kmh 29.79 in1008.8 mb 0.00 in0.0 mm 0.00 in0.0 mm 0.00 in0.0 mm
02:10 PM 88.2°F31.2°C 63.6°F17.6°C 44% 6.0 mph NW9.7 kmh NW 11.4 mph18.3 kmh 29.79 in1008.8 mb 0.00 in0.0 mm 0.00 in0.0 mm 0.00 in0.0 mm
02:20 PM 87.6°F30.9°C 63.7°F17.6°C 45% 6.0 mph N9.7 kmh N 13.0 mph20.9 kmh 29.78 in1008.5 mb 0.00 in0.0 mm 0.00 in0.0 mm 0.00 in0.0 mm
02:30 PM 87.8°F31.0°C 63.9°F17.7°C 45% 5.4 mph NNW8.7 kmh NNW 15.9 mph25.6 kmh 29.78 in1008.5 mb 0.00 in0.0 mm 0.00 in0.0 mm 0.00 in0.0 mm
02:40 PM 88.2°F31.2°C 63.6°F17.6°C 44% 6.0 mph NW9.7 kmh NW 17.4 mph28.0 kmh 29.78 in1008.5 mb 0.00 in0.0 mm 0.00 in0.0 mm 0.00 in0.0 mm
02:50 PM 88.7°F31.5°C 63.4°F17.4°C 43% 6.0 mph N9.7 kmh N 13.6 mph21.9 kmh 29.77 in1008.1 mb 0.00 in0.0 mm 0.00 in0.0 mm 0.00 in0.0 mm
03:00 PM 88.5°F31.4°C 63.9°F17.7°C 44% 5.4 mph N8.7 kmh N 13.0 mph20.9 kmh 29.77 in1008.1 mb 0.00 in0.0 mm 0.00 in0.0 mm 0.00 in0.0 mm
03:10 PM 88.3°F31.3°C 63.7°F17.6°C 44% 6.0 mph N9.7 kmh N 13.6 mph21.9 kmh 29.76 in1007.8 mb 0.00 in0.0 mm 0.00 in0.0 mm 0.00 in0.0 mm
03:20 PM 88.5°F31.4°C 63.2°F17.3°C 43% 6.9 mph NNW11.1 kmh NNW 14.5 mph23.3 kmh 29.76 in1007.8 mb 0.00 in0.0 mm 0.00 in0.0 mm 0.00 in0.0 mm
03:30 PM 89.6°F32.0°C 62.8°F17.1°C 41% 6.9 mph NNW11.1 kmh NNW 13.0 mph20.9 kmh 29.75 in1007.5 mb 0.00 in0.0 mm 0.00 in0.0 mm 0.00 in0.0 mm
03:40 PM 90.0°F32.2°C 63.2°F17.3°C 41% 6.0 mph N9.7 kmh N 12.1 mph19.5 kmh 29.75 in1007.5 mb 0.00 in0.0 mm 0.00 in0.0 mm 0.00 in0.0 mm
03:50 PM 89.8°F32.1°C 62.3°F16.8°C 40% 6.0 mph NW9.7 kmh NW 13.6 mph21.9 kmh 29.75 in1007.5 mb 0.00 in0.0 mm 0.00 in0.0 mm 0.00 in0.0 mm
04:00 PM 89.4°F31.9°C 62.7°F17.1°C 41% 15.9 mph NW25.6 kmh NW 18.3 mph29.5 kmh 29.74 in1007.1 mb 0.00 in0.0 mm 0.00 in0.0 mm 0.00 in0.0 mm
04:10 PM 89.1°F31.7°C 63.0°F17.2°C 42% 9.8 mph NW15.8 kmh NW 18.3 mph29.5 kmh 29.74 in1007.1 mb 0.00 in0.0 mm 0.00 in0.0 mm 0.00 in0.0 mm
04:20 PM 88.9°F31.6°C 62.9°F17.2°C 42% 9.8 mph NW15.8 kmh NW 15.9 mph25.6 kmh 29.73 in1006.8 mb 0.00 in0.0 mm 0.00 in0.0 mm 0.00 in0.0 mm
04:30 PM 90.0°F32.2°C 63.2°F17.3°C 41% 6.0 mph NNW9.7 kmh NNW 15.2 mph24.5 kmh 29.72 in1006.4 mb 0.00 in0.0 mm 0.00 in0.0 mm 0.00 in0.0 mm
04:40 PM 89.1°F31.7°C 63.0°F17.2°C 42% 5.4 mph NW8.7 kmh NW 13.0 mph20.9 kmh 29.71 in1006.1 mb 0.00 in0.0 mm 0.00 in0.0 mm 0.00 in0.0 mm
04:50 PM 89.1°F31.7°C 64.4°F18.0°C 44% 6.9 mph NW11.1 kmh NW 15.9 mph25.6 kmh 29.72 in1006.4 mb 0.00 in0.0 mm 0.00 in0.0 mm 0.00 in0.0 mm
05:00 PM 89.1°F31.7°C 64.4°F18.0°C 44% 5.4 mph N8.7 kmh N 12.1 mph19.5 kmh 29.72 in1006.4 mb 0.00 in0.0 mm 0.00 in0.0 mm 0.00 in0.0 mm
05:10 PM 88.7°F31.5°C 64.0°F17.8°C 44% 7.6 mph NNW12.2 kmh NNW 16.8 mph27.0 kmh 29.71 in1006.1 mb 0.00 in0.0 mm 0.00 in0.0 mm 0.00 in0.0 mm
05:20 PM 88.5°F31.4°C 63.2°F17.3°C 43% 5.4 mph NW8.7 kmh NW 15.2 mph24.5 kmh 29.72 in1006.4 mb 0.00 in0.0 mm 0.00 in0.0 mm 0.00 in0.0 mm
05:30 PM 88.9°F31.6°C 64.2°F17.9°C 44% 9.2 mph NW14.8 kmh NW 13.0 mph20.9 kmh 29.72 in1006.4 mb 0.00 in0.0 mm 0.00 in0.0 mm 0.00 in0.0 mm
05:40 PM 87.4°F30.8°C 63.5°F17.5°C 45% 7.6 mph NW12.2 kmh NW 15.9 mph25.6 kmh 29.72 in1006.4 mb 0.00 in0.0 mm 0.00 in0.0 mm 0.00 in0.0 mm
05:50 PM 86.7°F30.4°C 62.9°F17.2°C 45% 6.9 mph NW11.1 kmh NW 17.4 mph28.0 kmh 29.72 in1006.4 mb 0.00 in0.0 mm 0.00 in0.0 mm 0.00 in0.0 mm
06:00 PM 85.8°F29.9°C 62.7°F17.1°C 46% 11.4 mph NW18.3 kmh NW 18.3 mph29.5 kmh 29.71 in1006.1 mb 0.00 in0.0 mm 0.00 in0.0 mm 0.00 in0.0 mm
06:10 PM 85.5°F29.7°C 63.0°F17.2°C 47% 7.6 mph NW12.2 kmh NW 16.8 mph27.0 kmh 29.71 in1006.1 mb 0.00 in0.0 mm 0.00 in0.0 mm 0.00 in0.0 mm
06:20 PM 83.8°F28.8°C 63.3°F17.4°C 50% 8.3 mph NNW13.4 kmh NNW 13.0 mph20.9 kmh 29.71 in1006.1 mb 0.00 in0.0 mm 0.00 in0.0 mm 0.00 in0.0 mm
06:30 PM 83.3°F28.5°C 63.3°F17.4°C 51% 8.3 mph NNW13.4 kmh NNW 13.6 mph21.9 kmh 29.71 in1006.1 mb 0.00 in0.0 mm 0.00 in0.0 mm 0.00 in0.0 mm
06:40 PM 83.1°F28.4°C 63.7°F17.6°C 52% 6.0 mph NW9.7 kmh NW 12.1 mph19.5 kmh 29.71 in1006.1 mb 0.00 in0.0 mm 0.00 in0.0 mm 0.00 in0.0 mm
06:50 PM 83.5°F28.6°C 63.5°F17.5°C 51% 7.6 mph NW12.2 kmh NW 14.5 mph23.3 kmh 29.72 in1006.4 mb 0.00 in0.0 mm 0.00 in0.0 mm 0.00 in0.0 mm
07:00 PM 83.5°F28.6°C 63.5°F17.5°C 51% 6.9 mph NW11.1 kmh NW 15.2 mph24.5 kmh 29.71 in1006.1 mb 0.00 in0.0 mm 0.00 in0.0 mm 0.00 in0.0 mm
07:10 PM 82.9°F28.3°C 63.6°F17.6°C 52% 4.5 mph NNW7.2 kmh NNW 13.0 mph20.9 kmh 29.71 in1006.1 mb 0.00 in0.0 mm 0.00 in0.0 mm 0.00 in0.0 mm
07:20 PM 82.0°F27.8°C 63.3°F17.4°C 53% 5.4 mph NNW8.7 kmh NNW 12.1 mph19.5 kmh 29.70 in1005.8 mb 0.00 in0.0 mm 0.00 in0.0 mm 0.00 in0.0 mm
07:30 PM 81.1°F27.3°C 63.0°F17.2°C 54% 7.6 mph NW12.2 kmh NW 13.6 mph21.9 kmh 29.71 in1006.1 mb 0.00 in0.0 mm 0.00 in0.0 mm 0.00 in0.0 mm
07:40 PM 80.6°F27.0°C 63.0°F17.2°C 55% 6.9 mph N11.1 kmh N 13.0 mph20.9 kmh 29.70 in1005.8 mb 0.00 in0.0 mm 0.00 in0.0 mm 0.00 in0.0 mm
07:50 PM 80.1°F26.7°C 64.0°F17.8°C 58% 4.5 mph NNW7.2 kmh NNW 13.0 mph20.9 kmh 29.70 in1005.8 mb 0.00 in0.0 mm 0.00 in0.0 mm 0.00 in0.0 mm
08:00 PM 79.2°F26.2°C 64.1°F17.8°C 60% 6.9 mph N11.1 kmh N 9.8 mph15.8 kmh 29.71 in1006.1 mb 0.00 in0.0 mm 0.00 in0.0 mm 0.00 in0.0 mm
08:10 PM 79.2°F26.2°C 64.1°F17.8°C 60% 6.9 mph NNW11.1 kmh NNW 13.0 mph20.9 kmh 29.71 in1006.1 mb 0.00 in0.0 mm 0.00 in0.0 mm 0.00 in0.0 mm
08:20 PM 78.8°F26.0°C 64.3°F17.9°C 61% 7.6 mph N12.2 kmh N 13.0 mph20.9 kmh 29.71 in1006.1 mb 0.00 in0.0 mm 0.00 in0.0 mm 0.00 in0.0 mm
08:30 PM 78.6°F25.9°C 64.6°F18.1°C 62% 7.6 mph NW12.2 kmh NW 15.2 mph24.5 kmh 29.71 in1006.1 mb 0.00 in0.0 mm 0.00 in0.0 mm 0.00 in0.0 mm
08:40 PM 78.8°F26.0°C 64.3°F17.9°C 61% 6.9 mph N11.1 kmh N 14.5 mph23.3 kmh 29.70 in1005.8 mb 0.00 in0.0 mm 0.00 in0.0 mm 0.00 in0.0 mm
08:50 PM 78.6°F25.9°C 65.0°F18.3°C 63% 8.3 mph N13.4 kmh N 15.2 mph24.5 kmh 29.72 in1006.4 mb 0.00 in0.0 mm 0.00 in0.0 mm 0.00 in0.0 mm
09:00 PM 78.3°F25.7°C 64.7°F18.2°C 63% 6.0 mph N9.7 kmh N 13.6 mph21.9 kmh 29.71 in1006.1 mb 0.00 in0.0 mm 0.00 in0.0 mm 0.00 in0.0 mm
09:10 PM 77.4°F25.2°C 64.7°F18.2°C 65% 5.4 mph N8.7 kmh N 10.7 mph17.2 kmh 29.71 in1006.1 mb 0.00 in0.0 mm 0.00 in0.0 mm 0.00 in0.0 mm
09:20 PM 77.0°F25.0°C 64.8°F18.2°C 66% 5.4 mph N8.7 kmh N 12.1 mph19.5 kmh 29.71 in1006.1 mb 0.00 in0.0 mm 0.00 in0.0 mm 0.00 in0.0 mm
09:30 PM 76.6°F24.8°C 65.3°F18.5°C 68% 3.1 mph N5.0 kmh N 7.6 mph12.2 kmh 29.72 in1006.4 mb 0.00 in0.0 mm 0.00 in0.0 mm 0.00 in0.0 mm
09:40 PM 76.8°F24.9°C 65.1°F18.4°C 67% 3.1 mph N5.0 kmh N 8.3 mph13.4 kmh 29.72 in1006.4 mb 0.00 in0.0 mm 0.00 in0.0 mm 0.00 in0.0 mm
09:50 PM 76.5°F24.7°C 65.2°F18.4°C 68% 3.8 mph NNW6.1 kmh NNW 8.3 mph13.4 kmh 29.71 in1006.1 mb 0.00 in0.0 mm 0.00 in0.0 mm 0.00 in0.0 mm
10:00 PM 76.8°F24.9°C 65.1°F18.4°C 67% 3.1 mph NNW5.0 kmh NNW 12.1 mph19.5 kmh 29.71 in1006.1 mb 0.00 in0.0 mm 0.00 in0.0 mm 0.00 in0.0 mm
10:10 PM 76.8°F24.9°C 65.1°F18.4°C 67% 6.0 mph N9.7 kmh N 12.1 mph19.5 kmh 29.70 in1005.8 mb 0.00 in0.0 mm 0.00 in0.0 mm 0.00 in0.0 mm
10:20 PM 76.8°F24.9°C 65.1°F18.4°C 67% 6.9 mph NNE11.1 kmh NNE 9.8 mph15.8 kmh 29.70 in1005.8 mb 0.00 in0.0 mm 0.00 in0.0 mm 0.00 in0.0 mm
10:30 PM 76.5°F24.7°C 64.7°F18.2°C 67% 3.8 mph N6.1 kmh N 9.2 mph14.8 kmh 29.71 in1006.1 mb 0.00 in0.0 mm 0.00 in0.0 mm 0.00 in0.0 mm
10:40 PM 75.7°F24.3°C 64.5°F18.1°C 68% 3.8 mph N6.1 kmh N 6.9 mph11.1 kmh 29.71 in1006.1 mb 0.00 in0.0 mm 0.00 in0.0 mm 0.00 in0.0 mm
10:50 PM 75.6°F24.2°C 64.3°F17.9°C 68% 5.4 mph NNW8.7 kmh NNW 9.2 mph14.8 kmh 29.70 in1005.8 mb 0.00 in0.0 mm 0.00 in0.0 mm 0.00 in0.0 mm
11:00 PM 75.7°F24.3°C 64.0°F17.8°C 67% 6.0 mph NNW9.7 kmh NNW 11.4 mph18.3 kmh 29.70 in1005.8 mb 0.00 in0.0 mm 0.00 in0.0 mm 0.00 in0.0 mm
11:10 PM 75.2°F24.0°C 63.9°F17.7°C 68% 6.0 mph NW9.7 kmh NW 11.4 mph18.3 kmh 29.70 in1005.8 mb 0.00 in0.0 mm 0.00 in0.0 mm 0.00 in0.0 mm
11:20 PM 75.2°F24.0°C 63.5°F17.5°C 67% 4.5 mph NNW7.2 kmh NNW 9.2 mph14.8 kmh 29.70 in1005.8 mb 0.00 in0.0 mm 0.00 in0.0 mm 0.00 in0.0 mm
11:30 PM 75.2°F24.0°C 63.1°F17.3°C 66% 11.4 mph NNW18.3 kmh NNW 15.9 mph25.6 kmh 29.70 in1005.8 mb 0.00 in0.0 mm 0.00 in0.0 mm 0.00 in0.0 mm
11:40 PM 75.9°F24.4°C 61.5°F16.4°C 61% 3.8 mph NW6.1 kmh NW 15.9 mph25.6 kmh 29.70 in1005.8 mb 0.00 in0.0 mm 0.00 in0.0 mm 0.00 in0.0 mm
11:50 PM 75.4°F24.1°C 61.5°F16.4°C 62% 4.5 mph WNW7.2 kmh WNW 8.3 mph13.4 kmh 29.70 in1005.8 mb 0.00 in0.0 mm 0.00 in0.0 mm 0.00 in0.0 mm